sensor_id;sensor_type;location;lat;lon;timestamp;P1;durP1;ratioP1;P2;durP2;ratioP2
21297;SDS011;10808;48.010;11.326;2022-07-10T00:02:16;3.70;;;2.45;;
21297;SDS011;10808;48.010;11.326;2022-07-10T00:04:42;3.55;;;2.22;;
21297;SDS011;10808;48.010;11.326;2022-07-10T00:07:08;3.22;;;2.55;;
21297;SDS011;10808;48.010;11.326;2022-07-10T00:09:35;3.80;;;2.60;;
21297;SDS011;10808;48.010;11.326;2022-07-10T00:12:01;3.63;;;2.80;;
21297;SDS011;10808;48.010;11.326;2022-07-10T00:14:27;4.22;;;2.70;;
21297;SDS011;10808;48.010;11.326;2022-07-10T00:16:53;3.45;;;2.63;;
21297;SDS011;10808;48.010;11.326;2022-07-10T00:19:19;3.45;;;2.70;;
21297;SDS011;10808;48.010;11.326;2022-07-10T00:21:45;3.10;;;2.50;;
21297;SDS011;10808;48.010;11.326;2022-07-10T00:24:11;5.60;;;2.77;;
21297;SDS011;10808;48.010;11.326;2022-07-10T00:26:37;4.33;;;2.90;;
21297;SDS011;10808;48.010;11.326;2022-07-10T00:29:03;3.40;;;2.80;;
21297;SDS011;10808;48.010;11.326;2022-07-10T00:31:29;5.93;;;3.07;;
21297;SDS011;10808;48.010;11.326;2022-07-10T00:33:55;5.57;;;3.47;;
21297;SDS011;10808;48.010;11.326;2022-07-10T00:36:21;4.28;;;3.67;;
21297;SDS011;10808;48.010;11.326;2022-07-10T00:38:47;4.03;;;3.60;;
21297;SDS011;10808;48.010;11.326;2022-07-10T00:41:13;5.88;;;3.70;;
21297;SDS011;10808;48.010;11.326;2022-07-10T00:43:59;5.93;;;4.30;;
21297;SDS011;10808;48.010;11.326;2022-07-10T00:46:27;7.15;;;4.85;;
21297;SDS011;10808;48.010;11.326;2022-07-10T00:48:55;6.28;;;4.80;;
21297;SDS011;10808;48.010;11.326;2022-07-10T00:51:22;6.18;;;4.80;;
21297;SDS011;10808;48.010;11.326;2022-07-10T00:53:50;5.65;;;5.00;;
21297;SDS011;10808;48.010;11.326;2022-07-10T00:56:17;5.50;;;4.70;;
21297;SDS011;10808;48.010;11.326;2022-07-10T00:58:45;6.85;;;5.10;;
21297;SDS011;10808;48.010;11.326;2022-07-10T01:01:11;5.63;;;5.13;;
21297;SDS011;10808;48.010;11.326;2022-07-10T01:03:37;7.28;;;5.50;;
21297;SDS011;10808;48.010;11.326;2022-07-10T01:06:04;6.53;;;5.78;;
21297;SDS011;10808;48.010;11.326;2022-07-10T01:08:30;7.22;;;5.20;;
21297;SDS011;10808;48.010;11.326;2022-07-10T01:10:56;5.68;;;5.07;;
21297;SDS011;10808;48.010;11.326;2022-07-10T01:13:23;6.30;;;5.28;;
21297;SDS011;10808;48.010;11.326;2022-07-10T01:15:49;6.13;;;5.20;;
21297;SDS011;10808;48.010;11.326;2022-07-10T01:18:18;7.87;;;6.30;;
21297;SDS011;10808;48.010;11.326;2022-07-10T01:20:45;6.43;;;5.40;;
21297;SDS011;10808;48.010;11.326;2022-07-10T01:23:11;7.00;;;5.38;;
21297;SDS011;10808;48.010;11.326;2022-07-10T01:25:37;9.50;;;5.90;;
21297;SDS011;10808;48.010;11.326;2022-07-10T01:28:03;6.00;;;5.45;;
21297;SDS011;10808;48.010;11.326;2022-07-10T01:30:29;7.05;;;6.25;;
21297;SDS011;10808;48.010;11.326;2022-07-10T01:32:55;6.72;;;5.43;;
21297;SDS011;10808;48.010;11.326;2022-07-10T01:35:21;6.25;;;5.65;;
21297;SDS011;10808;48.010;11.326;2022-07-10T01:37:47;9.00;;;5.38;;
21297;SDS011;10808;48.010;11.326;2022-07-10T01:40:13;6.13;;;5.37;;
21297;SDS011;10808;48.010;11.326;2022-07-10T01:42:39;6.17;;;5.20;;
21297;SDS011;10808;48.010;11.326;2022-07-10T01:45:06;8.57;;;5.57;;
21297;SDS011;10808;48.010;11.326;2022-07-10T01:47:33;8.38;;;6.15;;
21297;SDS011;10808;48.010;11.326;2022-07-10T01:49:59;9.53;;;7.07;;
21297;SDS011;10808;48.010;11.326;2022-07-10T01:52:25;9.40;;;6.82;;
21297;SDS011;10808;48.010;11.326;2022-07-10T01:54:52;8.90;;;6.43;;
21297;SDS011;10808;48.010;11.326;2022-07-10T01:57:18;8.32;;;6.43;;
21297;SDS011;10808;48.010;11.326;2022-07-10T01:59:44;7.10;;;6.40;;
21297;SDS011;10808;48.010;11.326;2022-07-10T02:02:10;6.88;;;6.18;;
21297;SDS011;10808;48.010;11.326;2022-07-10T02:04:36;6.93;;;6.22;;
21297;SDS011;10808;48.010;11.326;2022-07-10T02:07:09;6.95;;;6.25;;
21297;SDS011;10808;48.010;11.326;2022-07-10T02:09:39;7.40;;;6.57;;
21297;SDS011;10808;48.010;11.326;2022-07-10T02:12:06;7.20;;;6.43;;
21297;SDS011;10808;48.010;11.326;2022-07-10T02:14:34;7.65;;;6.68;;
21297;SDS011;10808;48.010;11.326;2022-07-10T02:17:00;7.50;;;6.80;;
21297;SDS011;10808;48.010;11.326;2022-07-10T02:19:26;7.18;;;6.47;;
21297;SDS011;10808;48.010;11.326;2022-07-10T02:21:52;7.32;;;5.97;;
21297;SDS011;10808;48.010;11.326;2022-07-10T02:24:19;7.45;;;6.68;;
21297;SDS011;10808;48.010;11.326;2022-07-10T02:26:45;7.13;;;6.30;;
21297;SDS011;10808;48.010;11.326;2022-07-10T02:29:11;8.38;;;6.55;;
21297;SDS011;10808;48.010;11.326;2022-07-10T02:31:37;7.20;;;6.50;;
21297;SDS011;10808;48.010;11.326;2022-07-10T02:34:06;7.00;;;6.10;;
21297;SDS011;10808;48.010;11.326;2022-07-10T02:36:34;7.32;;;6.05;;
21297;SDS011;10808;48.010;11.326;2022-07-10T02:39:00;6.90;;;6.20;;
21297;SDS011;10808;48.010;11.326;2022-07-10T02:41:26;8.10;;;6.30;;
21297;SDS011;10808;48.010;11.326;2022-07-10T02:43:52;6.70;;;6.07;;
21297;SDS011;10808;48.010;11.326;2022-07-10T02:46:18;7.03;;;6.32;;
21297;SDS011;10808;48.010;11.326;2022-07-10T02:48:44;6.88;;;6.20;;
21297;SDS011;10808;48.010;11.326;2022-07-10T02:51:11;7.30;;;6.60;;
21297;SDS011;10808;48.010;11.326;2022-07-10T02:53:37;6.78;;;6.18;;
21297;SDS011;10808;48.010;11.326;2022-07-10T02:56:03;7.63;;;6.70;;
21297;SDS011;10808;48.010;11.326;2022-07-10T02:58:29;7.40;;;6.70;;
21297;SDS011;10808;48.010;11.326;2022-07-10T03:00:55;9.43;;;6.60;;
21297;SDS011;10808;48.010;11.326;2022-07-10T03:03:21;6.90;;;6.20;;
21297;SDS011;10808;48.010;11.326;2022-07-10T03:05:48;7.45;;;6.75;;
21297;SDS011;10808;48.010;11.326;2022-07-10T03:08:14;8.67;;;6.70;;
21297;SDS011;10808;48.010;11.326;2022-07-10T03:10:40;7.63;;;6.93;;
21297;SDS011;10808;48.010;11.326;2022-07-10T03:13:06;7.88;;;7.07;;
21297;SDS011;10808;48.010;11.326;2022-07-10T03:15:32;8.38;;;7.28;;
21297;SDS011;10808;48.010;11.326;2022-07-10T03:17:58;7.50;;;6.68;;
21297;SDS011;10808;48.010;11.326;2022-07-10T03:20:24;7.40;;;6.70;;
21297;SDS011;10808;48.010;11.326;2022-07-10T03:22:51;7.57;;;6.88;;
21297;SDS011;10808;48.010;11.326;2022-07-10T03:25:17;7.68;;;6.90;;
21297;SDS011;10808;48.010;11.326;2022-07-10T03:27:43;7.75;;;6.97;;
21297;SDS011;10808;48.010;11.326;2022-07-10T03:30:09;7.85;;;7.03;;
21297;SDS011;10808;48.010;11.326;2022-07-10T03:32:36;7.55;;;6.85;;
21297;SDS011;10808;48.010;11.326;2022-07-10T03:35:02;7.50;;;6.80;;
21297;SDS011;10808;48.010;11.326;2022-07-10T03:37:29;7.65;;;6.85;;
21297;SDS011;10808;48.010;11.326;2022-07-10T03:39:55;8.43;;;7.30;;
21297;SDS011;10808;48.010;11.326;2022-07-10T03:42:21;8.30;;;7.35;;
21297;SDS011;10808;48.010;11.326;2022-07-10T03:44:47;8.48;;;7.70;;
21297;SDS011;10808;48.010;11.326;2022-07-10T03:47:13;8.48;;;7.68;;
21297;SDS011;10808;48.010;11.326;2022-07-10T03:49:39;8.63;;;7.55;;
21297;SDS011;10808;48.010;11.326;2022-07-10T03:52:06;8.67;;;7.77;;
21297;SDS011;10808;48.010;11.326;2022-07-10T03:54:32;8.73;;;7.93;;
21297;SDS011;10808;48.010;11.326;2022-07-10T03:56:59;8.75;;;7.63;;
21297;SDS011;10808;48.010;11.326;2022-07-10T03:59:43;9.35;;;8.32;;
21297;SDS011;10808;48.010;11.326;2022-07-10T04:02:09;9.75;;;7.78;;
21297;SDS011;10808;48.010;11.326;2022-07-10T04:04:35;8.80;;;8.00;;
21297;SDS011;10808;48.010;11.326;2022-07-10T04:07:01;9.25;;;8.35;;
21297;SDS011;10808;48.010;11.326;2022-07-10T04:09:29;9.68;;;8.70;;
21297;SDS011;10808;48.010;11.326;2022-07-10T04:11:56;9.60;;;8.60;;
21297;SDS011;10808;48.010;11.326;2022-07-10T04:14:22;9.25;;;8.40;;
21297;SDS011;10808;48.010;11.326;2022-07-10T04:16:48;9.60;;;8.60;;
21297;SDS011;10808;48.010;11.326;2022-07-10T04:19:14;9.67;;;8.70;;
21297;SDS011;10808;48.010;11.326;2022-07-10T04:21:40;9.88;;;8.88;;
21297;SDS011;10808;48.010;11.326;2022-07-10T04:24:07;10.63;;;9.48;;
21297;SDS011;10808;48.010;11.326;2022-07-10T04:26:33;10.18;;;9.13;;
21297;SDS011;10808;48.010;11.326;2022-07-10T04:28:59;11.98;;;9.48;;
21297;SDS011;10808;48.010;11.326;2022-07-10T04:31:25;10.57;;;9.57;;
21297;SDS011;10808;48.010;11.326;2022-07-10T04:33:51;10.40;;;9.35;;
21297;SDS011;10808;48.010;11.326;2022-07-10T04:36:17;10.98;;;9.77;;
21297;SDS011;10808;48.010;11.326;2022-07-10T04:38:43;10.13;;;9.10;;
21297;SDS011;10808;48.010;11.326;2022-07-10T04:41:09;11.40;;;8.82;;
21297;SDS011;10808;48.010;11.326;2022-07-10T04:43:35;10.05;;;8.73;;
21297;SDS011;10808;48.010;11.326;2022-07-10T04:46:01;10.73;;;9.27;;
21297;SDS011;10808;48.010;11.326;2022-07-10T04:48:27;10.50;;;9.32;;
21297;SDS011;10808;48.010;11.326;2022-07-10T04:50:53;9.52;;;8.43;;
21297;SDS011;10808;48.010;11.326;2022-07-10T04:53:20;9.43;;;8.52;;
21297;SDS011;10808;48.010;11.326;2022-07-10T04:55:46;9.80;;;8.80;;
21297;SDS011;10808;48.010;11.326;2022-07-10T04:58:12;8.93;;;8.00;;
21297;SDS011;10808;48.010;11.326;2022-07-10T05:00:38;8.98;;;8.07;;
21297;SDS011;10808;48.010;11.326;2022-07-10T05:03:04;9.67;;;8.03;;
21297;SDS011;10808;48.010;11.326;2022-07-10T05:05:30;9.47;;;8.20;;
21297;SDS011;10808;48.010;11.326;2022-07-10T05:07:56;8.52;;;7.82;;
21297;SDS011;10808;48.010;11.326;2022-07-10T05:10:22;8.95;;;7.97;;
21297;SDS011;10808;48.010;11.326;2022-07-10T05:12:48;9.18;;;8.27;;
21297;SDS011;10808;48.010;11.326;2022-07-10T05:15:14;9.68;;;8.75;;
21297;SDS011;10808;48.010;11.326;2022-07-10T05:17:40;9.35;;;8.20;;
21297;SDS011;10808;48.010;11.326;2022-07-10T05:20:06;10.68;;;9.55;;
21297;SDS011;10808;48.010;11.326;2022-07-10T05:22:32;12.65;;;9.95;;
21297;SDS011;10808;48.010;11.326;2022-07-10T05:24:58;10.50;;;9.48;;
21297;SDS011;10808;48.010;11.326;2022-07-10T05:27:25;11.50;;;10.40;;
21297;SDS011;10808;48.010;11.326;2022-07-10T05:29:52;10.93;;;9.82;;
21297;SDS011;10808;48.010;11.326;2022-07-10T05:32:18;11.23;;;9.83;;
21297;SDS011;10808;48.010;11.326;2022-07-10T05:34:44;12.70;;;11.40;;
21297;SDS011;10808;48.010;11.326;2022-07-10T05:37:10;11.95;;;10.75;;
21297;SDS011;10808;48.010;11.326;2022-07-10T05:39:36;12.88;;;11.57;;
21297;SDS011;10808;48.010;11.326;2022-07-10T05:42:02;13.10;;;11.80;;
21297;SDS011;10808;48.010;11.326;2022-07-10T05:44:28;13.00;;;11.60;;
21297;SDS011;10808;48.010;11.326;2022-07-10T05:46:54;13.10;;;11.70;;
21297;SDS011;10808;48.010;11.326;2022-07-10T05:49:20;13.88;;;12.27;;
21297;SDS011;10808;48.010;11.326;2022-07-10T05:51:46;13.37;;;11.97;;
21297;SDS011;10808;48.010;11.326;2022-07-10T05:54:12;13.80;;;12.40;;
21297;SDS011;10808;48.010;11.326;2022-07-10T05:56:38;13.73;;;12.32;;
21297;SDS011;10808;48.010;11.326;2022-07-10T05:59:04;14.05;;;12.63;;
21297;SDS011;10808;48.010;11.326;2022-07-10T06:01:30;14.07;;;12.65;;
21297;SDS011;10808;48.010;11.326;2022-07-10T06:03:56;14.20;;;12.68;;
21297;SDS011;10808;48.010;11.326;2022-07-10T06:06:22;14.73;;;13.18;;
21297;SDS011;10808;48.010;11.326;2022-07-10T06:08:49;14.90;;;13.38;;
21297;SDS011;10808;48.010;11.326;2022-07-10T06:11:15;13.57;;;11.90;;
21297;SDS011;10808;48.010;11.326;2022-07-10T06:13:41;13.93;;;12.43;;
21297;SDS011;10808;48.010;11.326;2022-07-10T06:16:07;13.75;;;11.75;;
21297;SDS011;10808;48.010;11.326;2022-07-10T06:18:33;13.40;;;12.10;;
21297;SDS011;10808;48.010;11.326;2022-07-10T06:20:59;14.02;;;12.35;;
21297;SDS011;10808;48.010;11.326;2022-07-10T06:23:25;14.07;;;12.55;;
21297;SDS011;10808;48.010;11.326;2022-07-10T06:25:51;14.47;;;12.83;;
21297;SDS011;10808;48.010;11.326;2022-07-10T06:28:17;14.07;;;12.10;;
21297;SDS011;10808;48.010;11.326;2022-07-10T06:30:44;14.18;;;12.88;;
21297;SDS011;10808;48.010;11.326;2022-07-10T06:33:13;14.52;;;13.02;;
21297;SDS011;10808;48.010;11.326;2022-07-10T06:35:39;14.63;;;13.02;;
21297;SDS011;10808;48.010;11.326;2022-07-10T06:38:05;14.23;;;12.77;;
21297;SDS011;10808;48.010;11.326;2022-07-10T06:40:35;14.27;;;12.77;;
21297;SDS011;10808;48.010;11.326;2022-07-10T06:43:01;14.85;;;13.35;;
21297;SDS011;10808;48.010;11.326;2022-07-10T06:45:27;14.75;;;13.25;;
21297;SDS011;10808;48.010;11.326;2022-07-10T06:47:54;13.80;;;12.40;;
21297;SDS011;10808;48.010;11.326;2022-07-10T06:50:27;14.20;;;12.57;;
21297;SDS011;10808;48.010;11.326;2022-07-10T06:53:00;14.88;;;13.20;;
21297;SDS011;10808;48.010;11.326;2022-07-10T06:55:27;14.80;;;13.02;;
21297;SDS011;10808;48.010;11.326;2022-07-10T06:57:53;14.55;;;12.90;;
21297;SDS011;10808;48.010;11.326;2022-07-10T07:00:20;13.30;;;12.00;;
21297;SDS011;10808;48.010;11.326;2022-07-10T07:02:47;14.05;;;12.75;;
21297;SDS011;10808;48.010;11.326;2022-07-10T07:05:13;13.70;;;12.32;;
21297;SDS011;10808;48.010;11.326;2022-07-10T07:07:39;13.45;;;12.05;;
21297;SDS011;10808;48.010;11.326;2022-07-10T07:10:05;12.80;;;11.50;;
21297;SDS011;10808;48.010;11.326;2022-07-10T07:12:33;13.27;;;11.88;;
21297;SDS011;10808;48.010;11.326;2022-07-10T07:14:59;13.98;;;12.57;;
21297;SDS011;10808;48.010;11.326;2022-07-10T07:17:25;13.20;;;11.90;;
21297;SDS011;10808;48.010;11.326;2022-07-10T07:19:59;13.30;;;11.85;;
21297;SDS011;10808;48.010;11.326;2022-07-10T07:22:45;13.90;;;11.82;;
21297;SDS011;10808;48.010;11.326;2022-07-10T07:25:29;14.07;;;12.30;;
21297;SDS011;10808;48.010;11.326;2022-07-10T07:27:55;14.68;;;13.10;;
21297;SDS011;10808;48.010;11.326;2022-07-10T07:30:22;15.23;;;13.63;;
21297;SDS011;10808;48.010;11.326;2022-07-10T07:32:48;15.47;;;13.87;;
21297;SDS011;10808;48.010;11.326;2022-07-10T07:35:14;14.87;;;13.37;;
21297;SDS011;10808;48.010;11.326;2022-07-10T07:40:12;14.63;;;12.90;;
21297;SDS011;10808;48.010;11.326;2022-07-10T07:42:40;14.50;;;12.90;;
21297;SDS011;10808;48.010;11.326;2022-07-10T07:45:06;13.82;;;12.52;;
21297;SDS011;10808;48.010;11.326;2022-07-10T07:47:46;13.07;;;11.77;;
21297;SDS011;10808;48.010;11.326;2022-07-10T07:50:19;12.82;;;11.50;;
21297;SDS011;10808;48.010;11.326;2022-07-10T07:52:51;13.10;;;11.60;;
21297;SDS011;10808;48.010;11.326;2022-07-10T07:55:18;12.38;;;11.00;;
21297;SDS011;10808;48.010;11.326;2022-07-10T07:57:46;12.32;;;11.13;;
21297;SDS011;10808;48.010;11.326;2022-07-10T08:00:13;13.10;;;10.82;;
21297;SDS011;10808;48.010;11.326;2022-07-10T08:02:43;11.95;;;10.68;;
21297;SDS011;10808;48.010;11.326;2022-07-10T08:05:09;12.35;;;11.07;;
21297;SDS011;10808;48.010;11.326;2022-07-10T08:07:36;12.02;;;10.80;;
21297;SDS011;10808;48.010;11.326;2022-07-10T08:10:03;11.77;;;10.23;;
21297;SDS011;10808;48.010;11.326;2022-07-10T08:12:30;12.55;;;10.95;;
21297;SDS011;10808;48.010;11.326;2022-07-10T08:14:56;11.63;;;10.43;;
21297;SDS011;10808;48.010;11.326;2022-07-10T08:17:24;11.18;;;9.98;;
21297;SDS011;10808;48.010;11.326;2022-07-10T08:19:51;12.40;;;10.68;;
21297;SDS011;10808;48.010;11.326;2022-07-10T08:22:17;11.27;;;10.18;;
21297;SDS011;10808;48.010;11.326;2022-07-10T08:24:43;11.70;;;10.05;;
21297;SDS011;10808;48.010;11.326;2022-07-10T08:27:09;10.43;;;9.43;;
21297;SDS011;10808;48.010;11.326;2022-07-10T08:29:36;10.18;;;8.75;;
21297;SDS011;10808;48.010;11.326;2022-07-10T08:32:02;10.63;;;7.97;;
21297;SDS011;10808;48.010;11.326;2022-07-10T08:34:28;8.25;;;7.45;;
21297;SDS011;10808;48.010;11.326;2022-07-10T08:36:54;8.18;;;7.38;;
21297;SDS011;10808;48.010;11.326;2022-07-10T08:39:20;8.50;;;6.60;;
21297;SDS011;10808;48.010;11.326;2022-07-10T08:41:47;8.02;;;5.97;;
21297;SDS011;10808;48.010;11.326;2022-07-10T08:44:16;9.43;;;6.60;;
21297;SDS011;10808;48.010;11.326;2022-07-10T08:46:45;6.32;;;5.40;;
21297;SDS011;10808;48.010;11.326;2022-07-10T08:49:11;7.72;;;5.13;;
21297;SDS011;10808;48.010;11.326;2022-07-10T08:51:40;7.50;;;5.27;;
21297;SDS011;10808;48.010;11.326;2022-07-10T08:54:10;7.03;;;5.60;;
21297;SDS011;10808;48.010;11.326;2022-07-10T08:56:40;5.85;;;4.63;;
21297;SDS011;10808;48.010;11.326;2022-07-10T08:59:06;7.07;;;4.97;;
21297;SDS011;10808;48.010;11.326;2022-07-10T09:01:33;5.95;;;4.70;;
21297;SDS011;10808;48.010;11.326;2022-07-10T09:04:00;6.90;;;4.50;;
21297;SDS011;10808;48.010;11.326;2022-07-10T09:06:29;5.63;;;4.47;;
21297;SDS011;10808;48.010;11.326;2022-07-10T09:09:03;5.07;;;4.00;;
21297;SDS011;10808;48.010;11.326;2022-07-10T09:11:31;4.95;;;4.45;;
21297;SDS011;10808;48.010;11.326;2022-07-10T09:13:58;4.60;;;4.20;;
21297;SDS011;10808;48.010;11.326;2022-07-10T09:16:34;5.43;;;4.05;;
21297;SDS011;10808;48.010;11.326;2022-07-10T09:21:47;6.40;;;4.10;;
21297;SDS011;10808;48.010;11.326;2022-07-10T09:24:18;3.72;;;3.25;;
21297;SDS011;10808;48.010;11.326;2022-07-10T09:29:19;4.15;;;3.08;;
21297;SDS011;10808;48.010;11.326;2022-07-10T09:34:15;3.90;;;3.20;;
21297;SDS011;10808;48.010;11.326;2022-07-10T09:36:41;6.95;;;3.10;;
21297;SDS011;10808;48.010;11.326;2022-07-10T09:39:08;3.88;;;2.75;;
21297;SDS011;10808;48.010;11.326;2022-07-10T09:41:35;4.97;;;3.00;;
21297;SDS011;10808;48.010;11.326;2022-07-10T09:44:02;5.18;;;3.08;;
21297;SDS011;10808;48.010;11.326;2022-07-10T09:46:33;3.50;;;2.67;;
21297;SDS011;10808;48.010;11.326;2022-07-10T09:49:08;3.38;;;2.88;;
21297;SDS011;10808;48.010;11.326;2022-07-10T09:51:36;4.78;;;2.90;;
21297;SDS011;10808;48.010;11.326;2022-07-10T09:54:04;4.72;;;2.85;;
21297;SDS011;10808;48.010;11.326;2022-07-10T09:56:47;4.30;;;2.55;;
21297;SDS011;10808;48.010;11.326;2022-07-10T09:59:19;2.97;;;2.67;;
21297;SDS011;10808;48.010;11.326;2022-07-10T10:01:50;3.80;;;2.60;;
21297;SDS011;10808;48.010;11.326;2022-07-10T10:04:17;3.55;;;2.35;;
21297;SDS011;10808;48.010;11.326;2022-07-10T10:06:52;4.38;;;2.75;;
21297;SDS011;10808;48.010;11.326;2022-07-10T10:09:23;4.45;;;2.63;;
21297;SDS011;10808;48.010;11.326;2022-07-10T10:11:54;4.05;;;2.40;;
21297;SDS011;10808;48.010;11.326;2022-07-10T10:14:24;5.18;;;2.60;;
21297;SDS011;10808;48.010;11.326;2022-07-10T10:16:53;3.33;;;2.33;;
21297;SDS011;10808;48.010;11.326;2022-07-10T10:19:20;3.67;;;2.42;;
21297;SDS011;10808;48.010;11.326;2022-07-10T10:22:07;4.05;;;2.50;;
21297;SDS011;10808;48.010;11.326;2022-07-10T10:24:33;3.40;;;2.63;;
21297;SDS011;10808;48.010;11.326;2022-07-10T10:27:01;4.50;;;2.72;;
21297;SDS011;10808;48.010;11.326;2022-07-10T10:29:30;4.75;;;2.58;;
21297;SDS011;10808;48.010;11.326;2022-07-10T10:31:56;3.15;;;2.40;;
21297;SDS011;10808;48.010;11.326;2022-07-10T10:34:37;3.90;;;2.28;;
21297;SDS011;10808;48.010;11.326;2022-07-10T10:37:05;2.83;;;2.40;;
21297;SDS011;10808;48.010;11.326;2022-07-10T10:39:51;3.73;;;2.37;;
21297;SDS011;10808;48.010;11.326;2022-07-10T10:42:36;3.93;;;2.30;;
21297;SDS011;10808;48.010;11.326;2022-07-10T10:47:57;3.33;;;2.30;;
21297;SDS011;10808;48.010;11.326;2022-07-10T10:58:43;3.75;;;2.33;;
21297;SDS011;10808;48.010;11.326;2022-07-10T11:06:38;3.05;;;2.28;;
21297;SDS011;10808;48.010;11.326;2022-07-10T11:09:31;3.57;;;2.13;;
21297;SDS011;10808;48.010;11.326;2022-07-10T11:11:59;6.82;;;2.35;;
21297;SDS011;10808;48.010;11.326;2022-07-10T11:14:29;3.42;;;2.40;;
21297;SDS011;10808;48.010;11.326;2022-07-10T11:16:56;3.83;;;2.33;;
21297;SDS011;10808;48.010;11.326;2022-07-10T11:19:23;2.93;;;2.10;;
21297;SDS011;10808;48.010;11.326;2022-07-10T11:21:55;4.15;;;2.22;;
21297;SDS011;10808;48.010;11.326;2022-07-10T11:24:51;4.63;;;2.47;;
21297;SDS011;10808;48.010;11.326;2022-07-10T11:27:41;2.97;;;2.25;;
21297;SDS011;10808;48.010;11.326;2022-07-10T11:30:13;3.70;;;2.15;;
21297;SDS011;10808;48.010;11.326;2022-07-10T11:32:39;4.30;;;2.40;;
21297;SDS011;10808;48.010;11.326;2022-07-10T11:35:06;3.73;;;2.30;;
21297;SDS011;10808;48.010;11.326;2022-07-10T11:37:36;3.73;;;2.20;;
21297;SDS011;10808;48.010;11.326;2022-07-10T11:40:16;4.10;;;2.50;;
21297;SDS011;10808;48.010;11.326;2022-07-10T11:42:54;3.13;;;2.20;;
21297;SDS011;10808;48.010;11.326;2022-07-10T11:45:30;3.75;;;2.30;;
21297;SDS011;10808;48.010;11.326;2022-07-10T11:47:59;3.40;;;2.20;;
21297;SDS011;10808;48.010;11.326;2022-07-10T11:50:25;2.55;;;1.90;;
21297;SDS011;10808;48.010;11.326;2022-07-10T11:52:53;3.33;;;2.22;;
21297;SDS011;10808;48.010;11.326;2022-07-10T11:55:20;2.95;;;2.10;;
21297;SDS011;10808;48.010;11.326;2022-07-10T11:57:47;2.92;;;1.92;;
21297;SDS011;10808;48.010;11.326;2022-07-10T12:00:21;4.57;;;1.88;;
21297;SDS011;10808;48.010;11.326;2022-07-10T12:02:49;2.30;;;1.80;;
21297;SDS011;10808;48.010;11.326;2022-07-10T12:08:03;3.10;;;2.03;;
21297;SDS011;10808;48.010;11.326;2022-07-10T12:10:31;4.53;;;1.83;;
21297;SDS011;10808;48.010;11.326;2022-07-10T12:13:08;2.85;;;1.90;;
21297;SDS011;10808;48.010;11.326;2022-07-10T12:18:06;4.40;;;1.90;;
21297;SDS011;10808;48.010;11.326;2022-07-10T12:20:34;3.05;;;1.92;;
21297;SDS011;10808;48.010;11.326;2022-07-10T12:23:02;3.05;;;1.73;;
21297;SDS011;10808;48.010;11.326;2022-07-10T12:25:29;2.70;;;1.80;;
21297;SDS011;10808;48.010;11.326;2022-07-10T12:27:56;3.33;;;1.85;;
21297;SDS011;10808;48.010;11.326;2022-07-10T12:30:35;3.60;;;1.80;;
21297;SDS011;10808;48.010;11.326;2022-07-10T12:33:09;5.40;;;1.90;;
21297;SDS011;10808;48.010;11.326;2022-07-10T12:38:24;4.28;;;1.80;;
21297;SDS011;10808;48.010;11.326;2022-07-10T12:40:51;2.93;;;1.87;;
21297;SDS011;10808;48.010;11.326;2022-07-10T12:43:38;4.00;;;1.80;;
21297;SDS011;10808;48.010;11.326;2022-07-10T12:46:17;2.95;;;1.70;;
21297;SDS011;10808;48.010;11.326;2022-07-10T12:49:04;4.32;;;1.85;;
21297;SDS011;10808;48.010;11.326;2022-07-10T12:57:11;2.08;;;1.50;;
21297;SDS011;10808;48.010;11.326;2022-07-10T12:59:37;1.80;;;1.60;;
21297;SDS011;10808;48.010;11.326;2022-07-10T13:04:59;2.55;;;1.65;;
21297;SDS011;10808;48.010;11.326;2022-07-10T13:07:43;2.22;;;1.60;;
21297;SDS011;10808;48.010;11.326;2022-07-10T13:10:09;2.85;;;1.70;;
21297;SDS011;10808;48.010;11.326;2022-07-10T13:12:35;3.20;;;1.60;;
21297;SDS011;10808;48.010;11.326;2022-07-10T13:15:02;1.73;;;1.50;;
21297;SDS011;10808;48.010;11.326;2022-07-10T13:17:28;3.63;;;1.50;;
21297;SDS011;10808;48.010;11.326;2022-07-10T13:19:55;3.45;;;1.55;;
21297;SDS011;10808;48.010;11.326;2022-07-10T13:22:22;4.78;;;1.73;;
21297;SDS011;10808;48.010;11.326;2022-07-10T13:24:48;2.63;;;1.58;;
21297;SDS011;10808;48.010;11.326;2022-07-10T13:27:14;2.33;;;1.50;;
21297;SDS011;10808;48.010;11.326;2022-07-10T13:29:40;2.38;;;1.80;;
21297;SDS011;10808;48.010;11.326;2022-07-10T13:32:06;2.90;;;1.53;;
21297;SDS011;10808;48.010;11.326;2022-07-10T13:34:33;4.95;;;1.85;;
21297;SDS011;10808;48.010;11.326;2022-07-10T13:37:00;2.42;;;1.60;;
21297;SDS011;10808;48.010;11.326;2022-07-10T13:39:26;4.82;;;1.88;;
21297;SDS011;10808;48.010;11.326;2022-07-10T13:41:52;3.03;;;2.00;;
21297;SDS011;10808;48.010;11.326;2022-07-10T13:44:18;3.88;;;2.10;;
21297;SDS011;10808;48.010;11.326;2022-07-10T13:46:45;2.53;;;2.08;;
21297;SDS011;10808;48.010;11.326;2022-07-10T13:49:11;2.70;;;1.70;;
21297;SDS011;10808;48.010;11.326;2022-07-10T13:51:37;2.67;;;1.50;;
21297;SDS011;10808;48.010;11.326;2022-07-10T13:54:03;5.88;;;1.70;;
21297;SDS011;10808;48.010;11.326;2022-07-10T13:56:29;3.03;;;1.70;;
21297;SDS011;10808;48.010;11.326;2022-07-10T13:58:55;2.70;;;1.67;;
21297;SDS011;10808;48.010;11.326;2022-07-10T14:01:21;2.67;;;1.60;;
21297;SDS011;10808;48.010;11.326;2022-07-10T14:03:48;5.00;;;1.88;;
21297;SDS011;10808;48.010;11.326;2022-07-10T14:06:15;3.38;;;1.50;;
21297;SDS011;10808;48.010;11.326;2022-07-10T14:08:41;2.88;;;1.60;;
21297;SDS011;10808;48.010;11.326;2022-07-10T14:11:07;2.17;;;1.57;;
21297;SDS011;10808;48.010;11.326;2022-07-10T14:13:33;2.85;;;1.67;;
21297;SDS011;10808;48.010;11.326;2022-07-10T14:16:01;3.77;;;1.57;;
21297;SDS011;10808;48.010;11.326;2022-07-10T14:18:28;3.70;;;1.53;;
21297;SDS011;10808;48.010;11.326;2022-07-10T14:21:01;1.67;;;1.42;;
21297;SDS011;10808;48.010;11.326;2022-07-10T14:23:30;2.88;;;1.60;;
21297;SDS011;10808;48.010;11.326;2022-07-10T14:25:57;2.30;;;1.40;;
21297;SDS011;10808;48.010;11.326;2022-07-10T14:28:23;3.67;;;1.60;;
21297;SDS011;10808;48.010;11.326;2022-07-10T14:30:49;3.17;;;1.60;;
21297;SDS011;10808;48.010;11.326;2022-07-10T14:33:17;2.03;;;1.40;;
21297;SDS011;10808;48.010;11.326;2022-07-10T14:35:43;1.52;;;1.25;;
21297;SDS011;10808;48.010;11.326;2022-07-10T14:38:09;4.30;;;1.70;;
21297;SDS011;10808;48.010;11.326;2022-07-10T14:40:35;2.38;;;1.60;;
21297;SDS011;10808;48.010;11.326;2022-07-10T14:43:01;2.30;;;1.48;;
21297;SDS011;10808;48.010;11.326;2022-07-10T14:45:27;1.95;;;1.25;;
21297;SDS011;10808;48.010;11.326;2022-07-10T14:47:53;3.92;;;1.45;;
21297;SDS011;10808;48.010;11.326;2022-07-10T14:50:21;2.00;;;1.50;;
21297;SDS011;10808;48.010;11.326;2022-07-10T14:52:47;2.35;;;1.42;;
21297;SDS011;10808;48.010;11.326;2022-07-10T14:55:13;1.95;;;1.50;;
21297;SDS011;10808;48.010;11.326;2022-07-10T14:57:39;4.80;;;1.75;;
21297;SDS011;10808;48.010;11.326;2022-07-10T15:00:05;2.92;;;1.65;;
21297;SDS011;10808;48.010;11.326;2022-07-10T15:02:31;2.30;;;1.67;;
21297;SDS011;10808;48.010;11.326;2022-07-10T15:04:57;3.30;;;1.40;;
21297;SDS011;10808;48.010;11.326;2022-07-10T15:07:23;4.20;;;1.58;;
21297;SDS011;10808;48.010;11.326;2022-07-10T15:09:49;3.40;;;1.50;;
21297;SDS011;10808;48.010;11.326;2022-07-10T15:12:15;2.58;;;1.48;;
21297;SDS011;10808;48.010;11.326;2022-07-10T15:14:41;3.75;;;1.45;;
21297;SDS011;10808;48.010;11.326;2022-07-10T15:17:07;2.10;;;1.33;;